Time;durP1;ratioP1;P1;durP2;ratioP2;P2;SDS_P1;SDS_P2;PMS_P1;PMS_P2;Temp;Humidity;BMP_temperature;BMP_pressure;BME280_temperature;BME280_humidity;BME280_pressure;Samples;Min_cycle;Max_cycle;Signal;HPM_P1;HPM_P2
2021/06/11 00:00:46;;;;;;;0.40;0.30;;;15.70;99.90;;;;;;4971725;28;20725;-75
2021/06/11 00:03:12;;;;;;;0.40;0.20;;;15.60;99.90;;;;;;4972478;28;20381;-75
2021/06/11 00:05:38;;;;;;;0.40;0.30;;;15.50;99.90;;;;;;4971933;28;20815;-75
2021/06/11 00:08:04;;;;;;;0.40;0.30;;;15.50;99.90;;;;;;4972128;28;20394;-74
2021/06/11 00:10:31;;;;;;;0.40;0.20;;;15.50;99.90;;;;;;4972213;28;20408;-75
2021/06/11 00:12:57;;;;;;;0.40;0.20;;;15.50;99.90;;;;;;4971725;28;20384;-75
2021/06/11 00:15:24;;;;;;;0.40;0.30;;;15.50;99.90;;;;;;4988928;28;20403;-75
2021/06/11 00:17:50;;;;;;;0.40;0.20;;;15.40;99.90;;;;;;4991048;28;20387;-75
2021/06/11 00:20:16;;;;;;;0.40;0.30;;;15.40;99.90;;;;;;4991055;28;20485;-75
2021/06/11 00:22:41;;;;;;;0.40;0.20;;;15.40;99.90;;;;;;4990927;28;20403;-75
2021/06/11 00:25:09;;;;;;;0.40;0.30;;;15.30;99.90;;;;;;4991615;28;20462;-74
2021/06/11 00:27:35;;;;;;;0.40;0.30;;;15.30;99.90;;;;;;4991840;28;20421;-74
2021/06/11 00:30:02;;;;;;;0.40;0.20;;;15.30;99.90;;;;;;4990583;28;20505;-75
2021/06/11 00:32:28;;;;;;;0.40;0.20;;;15.40;99.90;;;;;;4991505;28;20393;-75
2021/06/11 00:34:53;;;;;;;0.40;0.30;;;15.30;99.90;;;;;;4990235;28;20457;-75
2021/06/11 00:37:19;;;;;;;0.40;0.20;;;15.40;99.90;;;;;;4991093;28;20874;-74
2021/06/11 00:39:45;;;;;;;0.40;0.30;;;15.40;99.90;;;;;;4990344;28;20382;-75
2021/06/11 00:42:10;;;;;;;0.40;0.23;;;15.40;99.90;;;;;;4991105;28;20767;-75
2021/06/11 00:44:36;;;;;;;0.40;0.30;;;15.20;99.90;;;;;;4990956;28;20399;-75
2021/06/11 00:47:02;;;;;;;0.40;0.20;;;15.20;99.90;;;;;;4990503;28;20382;-75
2021/06/11 00:49:28;;;;;;;0.40;0.20;;;15.20;99.90;;;;;;4990506;28;20430;-75
2021/06/11 00:51:53;;;;;;;0.40;0.30;;;15.10;99.90;;;;;;4990524;28;20389;-75
2021/06/11 00:54:20;;;;;;;0.40;0.20;;;15.00;99.90;;;;;;4991238;28;20391;-74
2021/06/11 00:56:46;;;;;;;0.40;0.30;;;15.10;99.90;;;;;;4989472;28;20853;-75
2021/06/11 00:59:12;;;;;;;0.40;0.20;;;15.10;99.90;;;;;;4990946;28;20929;-74
2021/06/11 01:01:39;;;;;;;0.40;0.28;;;15.10;99.90;;;;;;4991185;28;20450;-74
2021/06/11 01:04:04;;;;;;;0.40;0.20;;;15.10;99.90;;;;;;5005411;28;20429;-74
2021/06/11 01:06:30;;;;;;;0.40;0.20;;;15.10;99.90;;;;;;4973819;28;20890;-75
2021/06/11 01:08:57;;;;;;;0.40;0.20;;;15.20;99.90;;;;;;4990239;28;20379;-75
2021/06/11 01:11:24;;;;;;;0.40;0.20;;;15.20;99.90;;;;;;4991102;28;20425;-74
2021/06/11 01:13:50;;;;;;;0.40;0.20;;;15.10;99.90;;;;;;4989877;28;20414;-75
2021/06/11 01:16:16;;;;;;;0.40;0.30;;;15.10;99.90;;;;;;4990989;28;20386;-74
2021/06/11 01:18:42;;;;;;;0.40;0.20;;;15.10;99.90;;;;;;5005806;28;20484;-74
2021/06/11 01:21:07;;;;;;;0.40;0.20;;;15.10;99.90;;;;;;4990740;28;20557;-75
2021/06/11 01:24:02;;;;;;;0.40;0.20;;;15.00;99.90;;;;;;4990997;28;20382;-75
2021/06/11 01:26:32;;;;;;;0.40;0.30;;;15.00;99.90;;;;;;4990935;28;20811;-74
2021/06/11 01:29:01;;;;;;;0.40;0.30;;;15.00;99.90;;;;;;4990065;28;20390;-74
2021/06/11 01:31:30;;;;;;;0.40;0.30;;;14.90;99.90;;;;;;4990763;28;20835;-75
2021/06/11 01:34:00;;;;;;;0.40;0.20;;;14.90;99.90;;;;;;4989921;28;20383;-75
2021/06/11 01:36:36;;;;;;;0.40;0.20;;;14.90;99.90;;;;;;4990852;28;20402;-75
2021/06/11 01:39:05;;;;;;;0.40;0.30;;;14.90;99.90;;;;;;4989967;28;20402;-74
2021/06/11 01:41:33;;;;;;;0.40;0.30;;;14.80;99.90;;;;;;4990542;28;20926;-74
2021/06/11 01:44:00;;;;;;;0.40;0.20;;;14.90;99.90;;;;;;4989815;28;20402;-75
2021/06/11 01:46:32;;;;;;;0.40;0.30;;;14.80;99.90;;;;;;4990699;28;20410;-75
2021/06/11 01:48:59;;;;;;;0.40;0.20;;;14.80;99.90;;;;;;4991651;28;20400;-75
2021/06/11 01:51:27;;;;;;;0.40;0.30;;;14.70;99.90;;;;;;4994002;28;20504;-75
2021/06/11 01:53:54;;;;;;;0.40;0.30;;;14.70;99.90;;;;;;4993602;28;20696;-75
2021/06/11 01:56:20;;;;;;;0.40;0.30;;;14.80;99.90;;;;;;4994317;28;20418;-75
2021/06/11 01:58:47;;;;;;;0.40;0.20;;;14.70;99.90;;;;;;4993546;28;20386;-75
2021/06/11 02:01:13;;;;;;;0.40;0.30;;;14.60;99.90;;;;;;4994048;28;20430;-75
2021/06/11 02:03:44;;;;;;;0.40;0.20;;;14.60;99.90;;;;;;4994245;28;20383;-75
2021/06/11 02:06:11;;;;;;;0.40;0.20;;;14.70;99.90;;;;;;4993835;28;20386;-75
2021/06/11 02:08:38;;;;;;;0.40;0.20;;;14.70;99.90;;;;;;4993860;28;20391;-75
2021/06/11 02:11:04;;;;;;;0.40;0.30;;;14.70;99.90;;;;;;4992916;28;20504;-75
2021/06/11 02:13:31;;;;;;;0.40;0.20;;;14.60;99.90;;;;;;4993639;28;20462;-75
2021/06/11 02:15:58;;;;;;;0.40;0.20;;;14.60;99.90;;;;;;4992837;28;20942;-75
2021/06/11 02:18:25;;;;;;;0.40;0.20;;;14.60;99.90;;;;;;4993694;28;20390;-75
2021/06/11 02:20:52;;;;;;;0.40;0.30;;;14.50;99.90;;;;;;4992415;28;20398;-75
2021/06/11 02:23:19;;;;;;;0.40;0.30;;;14.40;99.90;;;;;;4993919;28;20398;-76
2021/06/11 02:25:45;;;;;;;0.40;0.30;;;14.40;99.90;;;;;;4993774;28;20383;-75
2021/06/11 02:28:15;;;;;;;0.40;0.30;;;14.30;99.90;;;;;;4992993;28;20406;-75
2021/06/11 02:30:42;;;;;;;0.40;0.20;;;14.40;99.90;;;;;;4993731;28;20501;-75
2021/06/11 02:33:08;;;;;;;0.40;0.20;;;14.40;99.90;;;;;;4992952;28;20386;-75
2021/06/11 02:35:33;;;;;;;0.40;0.20;;;14.30;99.90;;;;;;4993324;28;20878;-75
2021/06/11 02:37:59;;;;;;;0.40;0.20;;;14.20;99.90;;;;;;4992366;28;20457;-75
2021/06/11 02:40:25;;;;;;;0.40;0.20;;;14.20;99.90;;;;;;4993267;28;20511;-74
2021/06/11 02:42:56;;;;;;;0.40;0.30;;;14.20;99.90;;;;;;4992666;28;20885;-74
2021/06/11 02:45:28;;;;;;;0.40;0.30;;;14.20;99.90;;;;;;4993542;28;20858;-74
2021/06/11 02:47:53;;;;;;;0.40;0.20;;;14.10;99.90;;;;;;4992607;28;20399;-74
2021/06/11 02:50:31;;;;;;;0.40;0.20;;;14.10;99.90;;;;;;4992982;28;20425;-74
2021/06/11 02:53:01;;;;;;;0.40;0.30;;;14.10;99.90;;;;;;4992539;28;20387;-74
2021/06/11 02:55:28;;;;;;;0.40;0.20;;;14.10;99.90;;;;;;5008362;28;20810;-74
2021/06/11 02:58:11;;;;;;;0.40;0.30;;;14.00;99.90;;;;;;4992302;28;20386;-74
2021/06/11 03:00:38;;;;;;;0.40;0.25;;;14.10;99.90;;;;;;4993154;28;20389;-74
2021/06/11 03:03:23;;;;;;;0.40;0.30;;;14.00;99.90;;;;;;4992392;28;20390;-74
2021/06/11 03:05:53;;;;;;;0.40;0.20;;;14.00;99.90;;;;;;4992730;28;20771;-74
2021/06/11 03:08:23;;;;;;;0.40;0.40;;;14.00;99.90;;;;;;4993365;28;20398;-74
2021/06/11 03:10:52;;;;;;;0.40;0.20;;;14.00;99.90;;;;;;4992299;28;20835;-74
2021/06/11 03:13:20;;;;;;;0.40;0.30;;;14.00;99.90;;;;;;4992860;28;20406;-74
2021/06/11 03:15:46;;;;;;;0.40;0.30;;;14.00;99.90;;;;;;4992805;28;20422;-75
2021/06/11 03:18:43;;;;;;;0.40;0.20;;;14.00;99.90;;;;;;4992128;28;20485;-75
2021/06/11 03:21:20;;;;;;;0.40;0.20;;;13.90;99.90;;;;;;4979843;28;20589;-75
2021/06/11 03:23:57;;;;;;;0.40;0.20;;;13.90;99.90;;;;;;4992589;28;20395;-75
2021/06/11 03:26:32;;;;;;;0.40;0.20;;;13.90;99.90;;;;;;4992634;28;20394;-74
2021/06/11 03:29:02;;;;;;;0.40;0.30;;;13.90;99.90;;;;;;4991872;28;20379;-75
2021/06/11 03:31:39;;;;;;;0.40;0.30;;;13.90;99.90;;;;;;4992615;28;20410;-75
2021/06/11 03:34:09;;;;;;;0.40;0.20;;;13.90;99.90;;;;;;4991868;28;20414;-74
2021/06/11 03:36:40;;;;;;;0.40;0.30;;;13.90;99.90;;;;;;4992448;28;20378;-75
2021/06/11 03:39:11;;;;;;;0.40;0.20;;;13.90;99.90;;;;;;4991791;28;20383;-75
2021/06/11 03:41:37;;;;;;;0.40;0.25;;;13.90;99.90;;;;;;4992445;28;20370;-75
2021/06/11 03:44:07;;;;;;;0.40;0.20;;;13.90;99.90;;;;;;4991813;28;20418;-75
2021/06/11 03:46:34;;;;;;;0.40;0.20;;;13.90;99.90;;;;;;4992596;28;20391;-75
2021/06/11 03:49:01;;;;;;;0.40;0.30;;;13.90;99.90;;;;;;4991543;28;20398;-75
2021/06/11 03:51:28;;;;;;;0.40;0.30;;;13.90;99.90;;;;;;4974884;28;20505;-74
2021/06/11 03:53:56;;;;;;;0.40;0.25;;;13.90;99.90;;;;;;4991541;28;20395;-75
2021/06/11 03:56:24;;;;;;;0.40;0.20;;;13.90;99.90;;;;;;4992286;28;20386;-74
2021/06/11 03:58:52;;;;;;;0.40;0.20;;;14.00;99.90;;;;;;4992112;28;20393;-74
2021/06/11 04:01:23;;;;;;;0.40;0.30;;;13.90;99.90;;;;;;4991396;28;20449;-74
2021/06/11 04:03:49;;;;;;;0.40;0.30;;;14.00;99.90;;;;;;4992147;28;20859;-74
2021/06/11 04:06:29;;;;;;;0.40;0.30;;;14.00;99.90;;;;;;4991403;28;20474;-74
2021/06/11 04:09:00;;;;;;;0.40;0.30;;;13.90;99.90;;;;;;4991602;28;20465;-74
2021/06/11 04:11:28;;;;;;;0.40;0.20;;;14.00;99.90;;;;;;4991677;28;20501;-74
2021/06/11 04:13:56;;;;;;;0.40;0.20;;;13.90;99.90;;;;;;4991257;28;20422;-75
2021/06/11 04:16:31;;;;;;;0.40;0.20;;;13.80;99.90;;;;;;4991960;28;20419;-74
2021/06/11 04:19:01;;;;;;;0.40;0.30;;;13.80;99.90;;;;;;4991454;28;20900;-75
2021/06/11 04:21:32;;;;;;;0.40;0.30;;;13.80;99.90;;;;;;4976801;28;20400;-74
2021/06/11 04:24:01;;;;;;;0.40;0.20;;;13.90;99.90;;;;;;4969617;28;21237;-75
2021/06/11 04:26:29;;;;;;;0.40;0.30;;;13.90;99.90;;;;;;4968792;28;20402;-74
2021/06/11 04:28:56;;;;;;;0.40;0.20;;;13.90;99.90;;;;;;4968930;28;20469;-74
2021/06/11 04:31:22;;;;;;;0.40;0.30;;;13.90;99.90;;;;;;4966087;28;20422;-74
2021/06/11 04:33:48;;;;;;;0.40;0.40;;;14.00;99.90;;;;;;4970171;28;20943;-74
2021/06/11 04:36:14;;;;;;;0.40;0.30;;;13.90;99.90;;;;;;4967594;28;20403;-75
2021/06/11 04:39:00;;;;;;;0.40;0.20;;;13.90;99.90;;;;;;4968631;28;20391;-75
2021/06/11 04:41:28;;;;;;;0.40;0.20;;;14.00;99.90;;;;;;4966583;28;20443;-75
2021/06/11 04:43:59;;;;;;;0.40;0.20;;;14.00;99.90;;;;;;4968911;28;20418;-74
2021/06/11 04:46:26;;;;;;;0.40;0.30;;;14.10;99.90;;;;;;4978454;28;20470;-74
2021/06/11 04:48:52;;;;;;;0.40;0.20;;;14.20;99.90;;;;;;4992217;28;20386;-74
2021/06/11 04:51:18;;;;;;;0.40;0.20;;;14.30;99.90;;;;;;4990790;28;20422;-74
2021/06/11 04:53:44;;;;;;;0.40;0.20;;;14.40;99.90;;;;;;4973827;28;20568;-74
2021/06/11 04:56:11;;;;;;;0.40;0.20;;;14.40;99.90;;;;;;4988977;28;20398;-75
2021/06/11 04:58:38;;;;;;;0.40;0.30;;;14.40;99.90;;;;;;4973105;28;20760;-75
2021/06/11 05:01:05;;;;;;;0.40;0.30;;;14.40;99.90;;;;;;4989576;28;20397;-75
2021/06/11 05:03:31;;;;;;;0.40;0.20;;;14.50;99.90;;;;;;4990057;28;20453;-74
2021/06/11 05:05:57;;;;;;;0.40;0.20;;;14.60;99.90;;;;;;4990565;28;20386;-75
2021/06/11 05:08:23;;;;;;;0.40;0.20;;;14.60;99.90;;;;;;4990532;28;20391;-75
2021/06/11 05:10:50;;;;;;;0.40;0.30;;;14.60;99.90;;;;;;4991294;28;20870;-75
2021/06/11 05:13:15;;;;;;;0.40;0.30;;;14.60;99.90;;;;;;4990178;28;20438;-75
2021/06/11 05:15:41;;;;;;;0.40;0.23;;;14.60;99.90;;;;;;4990468;28;20430;-75
2021/06/11 05:18:07;;;;;;;0.40;0.20;;;14.70;99.90;;;;;;4989770;28;20391;-75
2021/06/11 05:20:34;;;;;;;0.40;0.30;;;14.80;99.90;;;;;;4990964;28;20445;-75
2021/06/11 05:23:00;;;;;;;0.40;0.20;;;14.80;99.90;;;;;;4992176;28;20394;-75
2021/06/11 05:25:26;;;;;;;0.40;0.20;;;14.90;99.90;;;;;;4995178;28;20389;-75
2021/06/11 05:27:52;;;;;;;0.40;0.30;;;15.00;99.90;;;;;;4994801;28;20386;-75
2021/06/11 05:30:19;;;;;;;0.40;0.20;;;15.00;99.90;;;;;;4994237;28;21043;-75
2021/06/11 05:32:45;;;;;;;0.40;0.30;;;15.10;99.90;;;;;;4995252;28;20395;-75
2021/06/11 05:35:12;;;;;;;0.40;0.20;;;15.20;99.90;;;;;;4976759;28;20843;-75
2021/06/11 05:37:38;;;;;;;0.40;0.30;;;15.30;99.90;;;;;;4994302;28;20963;-75
2021/06/11 05:40:04;;;;;;;0.40;0.20;;;15.40;99.90;;;;;;4994268;28;20414;-75
2021/06/11 05:42:30;;;;;;;0.40;0.30;;;15.40;99.90;;;;;;4994539;28;20401;-75
2021/06/11 05:44:55;;;;;;;0.40;0.30;;;15.50;99.90;;;;;;4994982;28;20399;-75
2021/06/11 05:47:21;;;;;;;0.40;0.20;;;15.60;99.90;;;;;;4993686;28;20396;-75
2021/06/11 05:49:47;;;;;;;0.40;0.20;;;15.70;99.90;;;;;;4994342;28;20453;-75
2021/06/11 05:52:12;;;;;;;0.40;0.20;;;15.70;99.90;;;;;;4993970;28;20465;-75
2021/06/11 05:54:38;;;;;;;0.40;0.30;;;15.80;99.90;;;;;;4994593;28;20429;-75
2021/06/11 05:57:04;;;;;;;0.40;0.20;;;15.80;99.90;;;;;;4993476;28;20906;-75
2021/06/11 05:59:30;;;;;;;0.40;0.20;;;15.90;99.90;;;;;;4994310;28;20391;-75
2021/06/11 06:01:55;;;;;;;0.40;0.30;;;16.00;99.90;;;;;;4994435;28;20386;-75
2021/06/11 06:04:22;;;;;;;0.40;0.20;;;16.10;99.90;;;;;;4993423;28;20877;-75
2021/06/11 06:06:48;;;;;;;0.40;0.30;;;16.20;99.90;;;;;;4994215;28;20390;-75
2021/06/11 06:09:13;;;;;;;0.40;0.30;;;16.30;99.90;;;;;;4993638;28;20452;-75
2021/06/11 06:11:39;;;;;;;0.40;0.20;;;16.30;99.90;;;;;;4994233;28;20410;-75
2021/06/11 06:14:05;;;;;;;0.40;0.30;;;16.50;99.90;;;;;;4993447;28;20914;-76
2021/06/11 06:16:30;;;;;;;0.40;0.30;;;16.60;99.90;;;;;;4994294;28;20743;-75
2021/06/11 06:18:56;;;;;;;0.40;0.30;;;16.70;99.90;;;;;;4994220;28;20390;-75
2021/06/11 06:21:23;;;;;;;0.40;0.20;;;16.80;99.90;;;;;;4993693;28;20401;-75
2021/06/11 06:23:49;;;;;;;0.40;0.30;;;16.80;99.90;;;;;;4993733;28;20909;-75
2021/06/11 06:26:15;;;;;;;0.40;0.30;;;16.80;99.90;;;;;;4993088;28;20391;-75
2021/06/11 06:28:40;;;;;;;0.40;0.30;;;16.90;99.90;;;;;;4993953;28;20453;-75
2021/06/11 06:31:06;;;;;;;0.40;0.20;;;17.00;99.90;;;;;;5008323;28;20583;-75
2021/06/11 06:33:32;;;;;;;0.40;0.20;;;17.00;99.90;;;;;;4993792;28;20885;-74
2021/06/11 06:35:57;;;;;;;0.40;0.30;;;17.10;99.90;;;;;;4991798;28;20388;-75
2021/06/11 06:38:25;;;;;;;0.40;0.30;;;17.30;99.90;;;;;;4992896;28;21187;-75
2021/06/11 06:40:58;;;;;;;0.40;0.30;;;17.30;99.90;;;;;;4994120;28;20477;-75
2021/06/11 06:43:23;;;;;;;0.40;0.20;;;17.50;99.90;;;;;;4992450;28;20463;-75
2021/06/11 06:45:49;;;;;;;0.40;0.20;;;17.50;99.90;;;;;;4992556;28;20905;-74
2021/06/11 06:48:15;;;;;;;0.40;0.30;;;17.50;99.90;;;;;;4991689;28;20429;-75
2021/06/11 06:50:41;;;;;;;0.40;0.30;;;17.50;99.90;;;;;;4993647;28;20871;-75
2021/06/11 06:53:08;;;;;;;0.40;0.30;;;17.60;99.90;;;;;;4992516;28;20394;-74
2021/06/11 06:55:34;;;;;;;0.40;0.20;;;17.80;99.90;;;;;;4993566;28;20992;-74
2021/06/11 06:58:00;;;;;;;0.40;0.30;;;17.80;99.90;;;;;;4992497;28;20382;-74
2021/06/11 07:00:25;;;;;;;0.40;0.30;;;18.00;99.90;;;;;;4992080;28;20449;-74
2021/06/11 07:02:51;;;;;;;0.40;0.20;;;18.00;99.90;;;;;;4992242;28;20394;-73
2021/06/11 07:05:17;;;;;;;0.40;0.30;;;18.10;99.90;;;;;;4991881;28;20414;-73
2021/06/11 07:07:42;;;;;;;0.40;0.30;;;18.20;99.90;;;;;;4992708;28;20390;-73
2021/06/11 07:10:09;;;;;;;0.40;0.20;;;18.10;99.90;;;;;;4991765;28;20517;-72
2021/06/11 07:12:36;;;;;;;0.40;0.30;;;18.30;99.90;;;;;;4992655;28;20441;-72
2021/06/11 07:15:03;;;;;;;0.40;0.20;;;18.30;99.90;;;;;;4992297;28;20430;-72
2021/06/11 07:17:29;;;;;;;0.40;0.20;;;18.40;99.90;;;;;;4992600;28;20486;-72
2021/06/11 07:19:55;;;;;;;0.57;0.38;;;18.60;99.90;;;;;;4992581;28;20481;-72
2021/06/11 07:22:21;;;;;;;0.40;0.30;;;18.90;99.90;;;;;;4992111;28;20387;-72
2021/06/11 07:24:47;;;;;;;0.40;0.20;;;18.90;99.90;;;;;;4992610;28;20387;-72
2021/06/11 07:27:12;;;;;;;0.40;0.25;;;19.20;99.90;;;;;;4992246;28;20402;-73
2021/06/11 07:29:44;;;;;;;0.40;0.30;;;19.30;99.90;;;;;;4992065;28;20460;-72
2021/06/11 07:32:14;;;;;;;0.40;0.30;;;19.40;99.90;;;;;;4992170;28;20382;-72
2021/06/11 07:34:40;;;;;;;0.40;0.30;;;19.60;99.90;;;;;;4992827;28;20383;-73
2021/06/11 07:37:06;;;;;;;0.40;0.20;;;19.80;99.90;;;;;;4974974;28;20782;-72
2021/06/11 07:39:32;;;;;;;0.40;0.20;;;19.60;99.90;;;;;;4992424;28;20422;-72
2021/06/11 07:41:59;;;;;;;0.40;0.30;;;20.10;99.90;;;;;;4993015;28;20387;-71
2021/06/11 07:44:24;;;;;;;0.40;0.20;;;20.10;99.90;;;;;;4991988;28;21078;-72
2021/06/11 07:46:50;;;;;;;0.40;0.30;;;20.20;99.90;;;;;;4991686;28;20520;-72
2021/06/11 07:49:16;;;;;;;0.40;0.20;;;20.10;99.90;;;;;;4991670;28;20893;-72
2021/06/11 07:51:42;;;;;;;0.40;0.20;;;20.10;99.90;;;;;;4992065;28;20407;-72
2021/06/11 07:54:08;;;;;;;0.40;0.20;;;20.10;99.90;;;;;;4991740;28;20394;-73
2021/06/11 07:56:36;;;;;;;0.40;0.20;;;20.20;99.90;;;;;;4992491;28;20874;-72
2021/06/11 07:59:02;;;;;;;0.40;0.30;;;20.20;99.90;;;;;;4992278;28;20397;-72
2021/06/11 08:01:28;;;;;;;0.40;0.30;;;20.20;99.90;;;;;;4991612;28;21051;-72
2021/06/11 08:03:54;;;;;;;0.40;0.30;;;20.30;99.90;;;;;;4991963;28;20863;-72
2021/06/11 08:06:19;;;;;;;0.40;0.30;;;20.70;99.90;;;;;;4991172;28;20473;-73
2021/06/11 08:08:45;;;;;;;0.40;0.30;;;20.70;99.90;;;;;;4992250;28;20759;-74
2021/06/11 08:11:11;;;;;;;0.40;0.20;;;20.90;99.90;;;;;;4974045;28;20486;-74
2021/06/11 08:13:38;;;;;;;0.40;0.20;;;20.90;99.90;;;;;;4991799;28;20403;-73
2021/06/11 08:16:04;;;;;;;0.40;0.30;;;20.90;99.90;;;;;;4990547;28;20833;-73
2021/06/11 08:18:29;;;;;;;0.40;0.20;;;21.00;99.90;;;;;;4991827;28;20379;-74
2021/06/11 08:20:55;;;;;;;0.40;0.30;;;21.10;99.90;;;;;;4992647;28;20386;-73
2021/06/11 08:23:21;;;;;;;0.40;0.20;;;21.10;99.90;;;;;;4991582;28;20619;-73
2021/06/11 08:25:47;;;;;;;0.40;0.30;;;21.20;99.90;;;;;;4991703;28;20885;-72
2021/06/11 08:28:12;;;;;;;0.40;0.30;;;21.30;99.90;;;;;;4991097;28;20931;-73
2021/06/11 08:30:47;;;;;;;0.40;0.30;;;21.40;99.90;;;;;;4991764;28;20419;-73
2021/06/11 08:33:13;;;;;;;0.40;0.20;;;21.30;99.90;;;;;;4991273;28;20386;-74
2021/06/11 08:35:39;;;;;;;0.40;0.30;;;21.40;99.90;;;;;;4991763;28;20529;-74
2021/06/11 08:38:06;;;;;;;0.40;0.30;;;21.40;99.90;;;;;;4992059;28;20417;-72
2021/06/11 08:40:32;;;;;;;0.45;0.32;;;21.40;99.90;;;;;;4990797;28;20862;-73
2021/06/11 08:42:58;;;;;;;0.40;0.30;;;21.50;99.90;;;;;;4991692;28;20390;-74
2021/06/11 08:45:24;;;;;;;0.40;0.20;;;21.60;99.90;;;;;;4990769;28;20518;-73
2021/06/11 08:47:52;;;;;;;0.40;0.30;;;21.80;99.90;;;;;;4991816;28;20477;-73
2021/06/11 08:50:21;;;;;;;0.40;0.20;;;21.70;99.90;;;;;;4990732;28;20414;-75
2021/06/11 08:52:47;;;;;;;0.40;0.30;;;21.50;99.90;;;;;;4991881;28;20379;-73
2021/06/11 08:55:13;;;;;;;0.40;0.30;;;21.70;99.90;;;;;;4990177;28;20863;-76
2021/06/11 08:57:39;;;;;;;0.40;0.20;;;21.90;99.90;;;;;;4990753;28;20474;-74
2021/06/11 09:00:07;;;;;;;0.40;0.30;;;21.90;99.90;;;;;;4990047;28;20997;-72
2021/06/11 09:02:33;;;;;;;0.40;0.20;;;21.90;99.90;;;;;;4990822;28;20469;-73
2021/06/11 09:04:58;;;;;;;0.40;0.20;;;21.90;99.90;;;;;;4991607;28;20447;-74
2021/06/11 09:07:31;;;;;;;0.40;0.30;;;22.00;99.90;;;;;;4990956;28;20916;-72
2021/06/11 09:10:00;;;;;;;0.40;0.30;;;22.20;99.90;;;;;;4991295;28;20488;-74
2021/06/11 09:12:38;;;;;;;0.40;0.30;;;22.30;99.90;;;;;;4990843;28;20388;-73
2021/06/11 09:15:10;;;;;;;0.40;0.30;;;22.30;99.90;;;;;;4991004;28;20422;-74
2021/06/11 09:17:42;;;;;;;0.40;0.30;;;22.60;99.90;;;;;;4990759;28;20541;-73
2021/06/11 09:20:28;;;;;;;0.40;0.20;;;22.60;99.90;;;;;;4991800;28;20469;-73
2021/06/11 09:23:00;;;;;;;0.40;0.30;;;22.60;99.90;;;;;;4991813;28;20394;-73
2021/06/11 09:25:27;;;;;;;0.50;0.40;;;22.60;99.90;;;;;;4990232;28;20390;-73
2021/06/11 09:28:05;;;;;;;0.40;0.30;;;22.60;99.90;;;;;;4991052;28;20477;-74
2021/06/11 09:30:45;;;;;;;0.40;0.30;;;22.60;99.90;;;;;;4989696;28;20648;-72
2021/06/11 09:33:17;;;;;;;0.40;0.30;;;23.00;99.60;;;;;;4990956;28;20389;-74
2021/06/11 09:35:46;;;;;;;0.40;0.20;;;22.80;99.00;;;;;;4990740;28;20386;-73
2021/06/11 09:38:18;;;;;;;0.40;0.30;;;22.60;99.90;;;;;;4990809;28;20387;-74
2021/06/11 09:40:50;;;;;;;0.40;0.20;;;22.80;99.90;;;;;;4991131;28;20488;-74
2021/06/11 09:43:17;;;;;;;0.40;0.30;;;23.00;99.40;;;;;;4990247;28;20413;-75
2021/06/11 09:45:58;;;;;;;0.40;0.30;;;23.00;98.80;;;;;;4991102;28;20382;-72
2021/06/11 09:48:26;;;;;;;0.40;0.20;;;23.20;98.90;;;;;;4989845;28;20879;-74
2021/06/11 09:50:52;;;;;;;0.40;0.20;;;23.30;99.50;;;;;;4991173;28;20782;-73
2021/06/11 09:53:23;;;;;;;0.40;0.30;;;23.30;98.70;;;;;;4990183;28;20395;-73
2021/06/11 09:55:51;;;;;;;0.40;0.40;;;23.30;97.80;;;;;;4990509;28;20398;-72
2021/06/11 09:58:20;;;;;;;0.40;0.30;;;23.40;98.40;;;;;;4987086;28;20399;-73
2021/06/11 10:00:46;;;;;;;0.40;0.30;;;23.50;97.30;;;;;;4990589;28;20397;-70
2021/06/11 10:03:17;;;;;;;0.40;0.30;;;23.60;96.90;;;;;;4989084;28;20779;-72
2021/06/11 10:05:44;;;;;;;0.40;0.30;;;23.70;96.80;;;;;;4990597;28;20391;-69
2021/06/11 10:08:11;;;;;;;0.40;0.20;;;23.70;96.60;;;;;;4990819;28;20386;-72
2021/06/11 10:10:38;;;;;;;0.40;0.30;;;23.70;96.80;;;;;;4992393;28;20407;-74
2021/06/11 10:13:04;;;;;;;0.40;0.20;;;23.80;96.90;;;;;;4994377;28;20383;-71
2021/06/11 10:15:31;;;;;;;0.40;0.30;;;23.80;97.10;;;;;;4993768;28;20406;-70
2021/06/11 10:17:58;;;;;;;0.40;0.30;;;24.00;96.30;;;;;;4994282;28;20386;-71
2021/06/11 10:20:23;;;;;;;0.40;0.30;;;24.20;96.90;;;;;;4992262;28;20394;-72
2021/06/11 10:22:50;;;;;;;0.40;0.20;;;24.00;95.80;;;;;;4994089;28;20401;-74
2021/06/11 10:25:15;;;;;;;0.40;0.30;;;24.00;95.90;;;;;;4993975;28;20401;-69
2021/06/11 10:27:42;;;;;;;0.40;0.20;;;24.10;95.50;;;;;;4993610;28;20867;-72
2021/06/11 10:30:12;;;;;;;0.40;0.20;;;24.30;95.60;;;;;;4993927;28;20442;-73
2021/06/11 10:32:41;;;;;;;0.40;0.25;;;24.20;94.80;;;;;;4992422;28;20402;-71
2021/06/11 10:35:10;;;;;;;0.40;0.30;;;24.40;95.90;;;;;;4993677;28;20750;-72
2021/06/11 10:37:42;;;;;;;0.40;0.20;;;24.60;95.20;;;;;;4993022;28;20391;-72
2021/06/11 10:40:38;;;;;;;0.40;0.20;;;24.70;95.30;;;;;;4993968;28;20403;-73
2021/06/11 10:43:25;;;;;;;0.40;0.20;;;24.80;95.10;;;;;;4991355;28;20461;-72
2021/06/11 10:45:52;;;;;;;0.40;0.20;;;24.90;97.70;;;;;;4993826;28;20399;-70
2021/06/11 10:48:19;;;;;;;0.40;0.30;;;24.80;94.60;;;;;;4992886;28;20398;-75
2021/06/11 10:50:46;;;;;;;0.40;0.30;;;24.90;95.50;;;;;;4992644;28;20505;-72
2021/06/11 10:53:26;;;;;;;0.40;0.20;;;24.90;94.20;;;;;;4993012;28;20414;-72
2021/06/11 10:56:06;;;;;;;0.40;0.30;;;24.90;93.10;;;;;;4992104;28;20823;-74
2021/06/11 10:58:33;;;;;;;0.40;0.30;;;24.90;92.50;;;;;;4992455;28;20414;-72
2021/06/11 11:01:19;;;;;;;0.40;0.30;;;25.10;92.80;;;;;;4993203;28;20831;-74
2021/06/11 11:03:45;;;;;;;0.40;0.20;;;25.20;93.50;;;;;;4992008;28;20405;-73
2021/06/11 11:06:31;;;;;;;0.40;0.20;;;25.50;91.50;;;;;;4993013;28;20390;-73
2021/06/11 11:08:59;;;;;;;0.40;0.20;;;25.70;90.80;;;;;;4993141;28;20387;-73
2021/06/11 11:11:30;;;;;;;0.40;0.30;;;25.70;94.00;;;;;;4992234;28;20497;-73
2021/06/11 11:13:56;;;;;;;0.45;0.28;;;25.80;87.80;;;;;;4971982;28;20507;-74
2021/06/11 11:16:24;;;;;;;0.40;0.30;;;26.00;90.40;;;;;;4971926;28;20495;-75
2021/06/11 11:18:50;;;;;;;0.40;0.20;;;26.20;90.90;;;;;;4971933;28;20478;-73
2021/06/11 11:21:35;;;;;;;0.40;0.28;;;26.50;90.60;;;;;;4973814;28;20403;-74
2021/06/11 11:24:10;;;;;;;0.40;0.30;;;26.50;91.00;;;;;;4974243;28;20455;-74
2021/06/11 11:26:46;;;;;;;0.40;0.20;;;26.30;92.20;;;;;;4987732;28;20404;-74
2021/06/11 11:29:14;;;;;;;0.40;0.20;;;26.90;90.10;;;;;;4973708;28;20384;-73
2021/06/11 11:31:42;;;;;;;0.40;0.30;;;26.50;86.90;;;;;;4972732;28;20420;-73
2021/06/11 11:34:11;;;;;;;0.40;0.20;;;26.20;88.70;;;;;;4973281;28;20376;-74
2021/06/11 11:36:38;;;;;;;0.60;0.40;;;26.10;90.50;;;;;;4972379;28;20384;-72
2021/06/11 11:39:06;;;;;;;0.40;0.20;;;25.60;91.50;;;;;;4973522;28;20749;-72
2021/06/11 11:41:32;;;;;;;0.40;0.20;;;26.20;92.20;;;;;;4972428;28;20395;-71
2021/06/11 11:43:58;;;;;;;0.40;0.30;;;27.30;84.60;;;;;;4973187;28;20392;-71
2021/06/11 11:46:24;;;;;;;0.40;0.20;;;27.30;77.30;;;;;;4972692;28;20404;-73
2021/06/11 11:48:49;;;;;;;0.40;0.20;;;27.60;82.30;;;;;;4972824;28;20907;-73
2021/06/11 11:51:17;;;;;;;0.40;0.20;;;28.10;75.00;;;;;;4973085;28;20992;-74
2021/06/11 11:53:42;;;;;;;0.40;0.20;;;28.00;88.10;;;;;;4972395;28;20389;-74
2021/06/11 11:56:08;;;;;;;0.40;0.20;;;29.00;79.50;;;;;;4972669;28;20396;-74
2021/06/11 11:58:34;;;;;;;0.50;0.30;;;28.80;70.10;;;;;;4972335;28;20391;-72
2021/06/11 12:00:59;;;;;;;0.50;0.30;;;28.20;71.50;;;;;;4973418;28;20871;-71
2021/06/11 12:03:25;;;;;;;0.40;0.20;;;27.10;75.70;;;;;;4972275;28;20853;-72
2021/06/11 12:05:51;;;;;;;0.50;0.30;;;27.10;76.20;;;;;;4973247;28;20399;-71
2021/06/11 12:08:16;;;;;;;0.40;0.20;;;27.40;75.80;;;;;;4972633;28;20439;-73
2021/06/11 12:10:42;;;;;;;0.40;0.30;;;27.30;76.40;;;;;;4972008;28;20487;-74
2021/06/11 12:13:08;;;;;;;0.40;0.20;;;27.70;80.30;;;;;;4972387;28;20805;-73
2021/06/11 12:15:34;;;;;;;0.40;0.20;;;27.90;79.60;;;;;;4990635;28;20453;-74
2021/06/11 12:18:00;;;;;;;0.40;0.20;;;27.60;81.70;;;;;;4992531;28;20391;-73
2021/06/11 12:20:31;;;;;;;0.40;0.30;;;27.10;77.80;;;;;;4991785;28;20390;-76
2021/06/11 12:22:58;;;;;;;0.40;0.20;;;27.30;83.40;;;;;;4992259;28;20385;-74
2021/06/11 12:25:23;;;;;;;0.40;0.20;;;27.40;84.90;;;;;;4991756;28;20494;-77
2021/06/11 12:27:49;;;;;;;0.40;0.30;;;27.70;81.20;;;;;;4991742;28;20387;-76
2021/06/11 12:30:15;;;;;;;0.40;0.20;;;28.10;84.20;;;;;;4991876;28;20418;-75
2021/06/11 12:32:41;;;;;;;0.40;0.30;;;28.40;81.70;;;;;;5005992;28;20906;-75
2021/06/11 12:35:07;;;;;;;0.40;0.20;;;28.40;79.10;;;;;;4992186;28;20390;-76
2021/06/11 12:37:33;;;;;;;0.40;0.30;;;28.20;79.30;;;;;;4991000;28;20533;-76
2021/06/11 12:40:00;;;;;;;0.40;0.20;;;28.80;80.10;;;;;;4990916;28;20493;-75
2021/06/11 12:42:34;;;;;;;0.40;0.30;;;29.00;75.10;;;;;;4991010;28;20386;-76
2021/06/11 12:45:00;;;;;;;0.47;0.30;;;29.10;73.70;;;;;;4992334;28;20406;-76
2021/06/11 12:47:26;;;;;;;0.40;0.20;;;29.10;75.80;;;;;;4991417;28;20861;-77
2021/06/11 12:49:51;;;;;;;0.40;0.30;;;28.90;74.80;;;;;;4992004;28;20833;-77
2021/06/11 12:52:17;;;;;;;0.40;0.20;;;28.60;79.50;;;;;;4991639;28;20747;-77